This is the latest recevied weather packets stored in our database for station/object LA1HSA-13. If no packets are shown the sender has not sent any weather packets the latest 10 day(s).
| Time | Temp. | Humidity | Pressure | Rain* | Wind** | Luminosity | Snow |
|---|---|---|---|---|---|---|---|
| 1778233203 | 13.89° C | 49% | 1022.9 hPa | 0 mm | - | - | - |
| 1778232603 | 13.33° C | 47% | 1022.9 hPa | 0 mm | - | - | - |
| 1778232004 | 12.22° C | 49% | 1023 hPa | 0 mm | - | - | - |
| 1778231403 | 13.33° C | 46% | 1022.9 hPa | 0 mm | - | - | - |
| 1778230803 | 13.33° C | 45% | 1023 hPa | 0 mm | - | - | - |
| 1778230204 | 12.22° C | 46% | 1023 hPa | 0 mm | - | - | - |
| 1778229603 | 12.22° C | 50% | 1023 hPa | 0 mm | - | - | - |
| 1778229003 | 12.22° C | 48% | 1022.9 hPa | 0 mm | - | - | - |
| 1778228403 | 11.11° C | 54% | 1023 hPa | 0 mm | - | - | - |
| 1778227803 | 11.11° C | 54% | 1023 hPa | 0 mm | - | - | - |
| 1778227203 | 10.56° C | 56% | 1022.9 hPa | 0 mm | - | - | - |
| 1778226603 | 11.11° C | 54% | 1022.9 hPa | 0 mm | - | - | - |
| 1778226003 | 10.56° C | 57% | 1022.9 hPa | 0 mm | - | - | - |
| 1778224803 | 9.44° C | 57% | 1022.8 hPa | 0 mm | - | - | - |
| 1778224203 | 7.78° C | 64% | 1023 hPa | 0 mm | - | - | - |
| 1778223604 | 7.22° C | 66% | 1023 hPa | 0 mm | - | - | - |
| 1778223003 | 6.67° C | 67% | 1022.8 hPa | 0 mm | - | - | - |
| 1778222403 | 6.67° C | 69% | 1022.8 hPa | 0 mm | - | - | - |
| 1778221804 | 5.56° C | 73% | 1022.7 hPa | 0 mm | - | - | - |
| 1778221203 | 5° C | 75% | 1022.6 hPa | 0 mm | - | - | - |
| 1778220603 | 4.44° C | 77% | 1022.3 hPa | 0 mm | - | - | - |
| 1778220003 | 4.44° C | 76% | 1022.4 hPa | 0 mm | - | - | - |
| 1778219403 | 3.89° C | 78% | 1022.3 hPa | 0 mm | - | - | - |
| 1778218803 | 3.33° C | 73% | 1022.3 hPa | 0 mm | - | - | - |
| 1778218203 | 2.78° C | 74% | 1022.2 hPa | 0 mm | - | - | - |
* Rain latest hour (hover to see other rain measurements)
** Current wind speed in m/s (hover to see current wind gust speed)